sensor_id;sensor_type;location;lat;lon;timestamp;pressure;altitude;pressure_sealevel;temperature;humidity
26657;BME280;14279;50.010;8.260;2023-05-29T00:01:34;100610.38;;;20.69;42.34
26657;BME280;14279;50.010;8.260;2023-05-29T00:04:01;100607.38;;;20.62;42.95
26657;BME280;14279;50.010;8.260;2023-05-29T00:06:26;100619.78;;;20.62;42.75
26657;BME280;14279;50.010;8.260;2023-05-29T00:08:51;100611.13;;;20.60;42.64
26657;BME280;14279;50.010;8.260;2023-05-29T00:11:16;100614.50;;;20.62;41.67
26657;BME280;14279;50.010;8.260;2023-05-29T00:13:42;100612.50;;;20.54;42.17
26657;BME280;14279;50.010;8.260;2023-05-29T00:16:07;100608.19;;;20.53;42.19
26657;BME280;14279;50.010;8.260;2023-05-29T00:18:34;100603.47;;;20.56;41.83
26657;BME280;14279;50.010;8.260;2023-05-29T00:21:00;100603.91;;;20.62;42.48
26657;BME280;14279;50.010;8.260;2023-05-29T00:23:25;100603.16;;;20.50;42.51
26657;BME280;14279;50.010;8.260;2023-05-29T00:25:50;100599.84;;;20.36;43.07
26657;BME280;14279;50.010;8.260;2023-05-29T00:28:15;100598.88;;;20.37;43.22
26657;BME280;14279;50.010;8.260;2023-05-29T00:30:40;100588.38;;;20.26;42.19
26657;BME280;14279;50.010;8.260;2023-05-29T00:33:06;100598.25;;;20.24;42.51
26657;BME280;14279;50.010;8.260;2023-05-29T00:35:31;100598.69;;;20.29;42.99
26657;BME280;14279;50.010;8.260;2023-05-29T00:37:57;100595.19;;;20.28;43.03
26657;BME280;14279;50.010;8.260;2023-05-29T00:40:23;100598.44;;;20.32;41.20
26657;BME280;14279;50.010;8.260;2023-05-29T00:42:48;100598.63;;;20.40;40.94
26657;BME280;14279;50.010;8.260;2023-05-29T00:45:13;100593.59;;;20.37;40.51
26657;BME280;14279;50.010;8.260;2023-05-29T00:47:40;100597.59;;;20.32;41.02
26657;BME280;14279;50.010;8.260;2023-05-29T00:50:08;100589.41;;;20.35;42.46
26657;BME280;14279;50.010;8.260;2023-05-29T00:52:34;100598.31;;;20.34;41.13
26657;BME280;14279;50.010;8.260;2023-05-29T00:55:00;100588.91;;;20.41;41.49
26657;BME280;14279;50.010;8.260;2023-05-29T00:57:27;100591.34;;;20.33;40.29
26657;BME280;14279;50.010;8.260;2023-05-29T00:59:53;100592.75;;;20.16;40.84
26657;BME280;14279;50.010;8.260;2023-05-29T01:02:20;100599.53;;;20.08;41.37
26657;BME280;14279;50.010;8.260;2023-05-29T01:04:45;100596.59;;;20.11;40.99
26657;BME280;14279;50.010;8.260;2023-05-29T01:07:11;100594.69;;;20.13;40.38
26657;BME280;14279;50.010;8.260;2023-05-29T01:09:36;100586.25;;;20.20;41.26
26657;BME280;14279;50.010;8.260;2023-05-29T01:15:10;100593.91;;;20.23;40.70
26657;BME280;14279;50.010;8.260;2023-05-29T01:21:06;100585.69;;;20.16;40.78
26657;BME280;14279;50.010;8.260;2023-05-29T01:28:44;100583.75;;;20.18;40.43
26657;BME280;14279;50.010;8.260;2023-05-29T01:31:12;100586.63;;;20.15;41.37
26657;BME280;14279;50.010;8.260;2023-05-29T01:33:40;100590.22;;;19.81;42.46
26657;BME280;14279;50.010;8.260;2023-05-29T01:36:08;100587.50;;;19.72;43.60
26657;BME280;14279;50.010;8.260;2023-05-29T01:38:34;100594.31;;;19.74;44.49
26657;BME280;14279;50.010;8.260;2023-05-29T01:41:00;100598.06;;;19.72;48.64
26657;BME280;14279;50.010;8.260;2023-05-29T01:43:26;100590.88;;;19.62;46.58
26657;BME280;14279;50.010;8.260;2023-05-29T01:45:51;100592.56;;;19.63;46.59
26657;BME280;14279;50.010;8.260;2023-05-29T01:48:17;100594.63;;;19.60;46.31
26657;BME280;14279;50.010;8.260;2023-05-29T01:50:43;100592.94;;;19.59;43.36
26657;BME280;14279;50.010;8.260;2023-05-29T01:53:09;100585.75;;;19.61;42.57
26657;BME280;14279;50.010;8.260;2023-05-29T01:55:34;100584.78;;;19.62;43.72
26657;BME280;14279;50.010;8.260;2023-05-29T01:58:00;100583.78;;;19.63;42.83
26657;BME280;14279;50.010;8.260;2023-05-29T02:00:25;100579.59;;;19.60;43.02
26657;BME280;14279;50.010;8.260;2023-05-29T02:02:51;100581.16;;;19.63;43.05
26657;BME280;14279;50.010;8.260;2023-05-29T02:05:16;100579.38;;;19.52;43.60
26657;BME280;14279;50.010;8.260;2023-05-29T02:07:42;100575.19;;;19.38;43.79
26657;BME280;14279;50.010;8.260;2023-05-29T02:10:08;100567.66;;;19.33;45.02
26657;BME280;14279;50.010;8.260;2023-05-29T02:12:33;100569.72;;;19.30;45.65
26657;BME280;14279;50.010;8.260;2023-05-29T02:14:58;100571.28;;;19.21;45.10
26657;BME280;14279;50.010;8.260;2023-05-29T02:17:24;100569.00;;;19.16;44.87
26657;BME280;14279;50.010;8.260;2023-05-29T02:19:50;100557.72;;;19.26;44.43
26657;BME280;14279;50.010;8.260;2023-05-29T02:22:17;100558.00;;;19.11;44.61
26657;BME280;14279;50.010;8.260;2023-05-29T02:24:42;100563.16;;;19.01;44.31
26657;BME280;14279;50.010;8.260;2023-05-29T02:27:07;100564.81;;;19.02;44.00
26657;BME280;14279;50.010;8.260;2023-05-29T02:29:33;100563.41;;;18.98;44.22
26657;BME280;14279;50.010;8.260;2023-05-29T02:31:58;100567.09;;;18.84;44.62
26657;BME280;14279;50.010;8.260;2023-05-29T02:34:23;100563.38;;;18.75;44.72
26657;BME280;14279;50.010;8.260;2023-05-29T02:36:49;100567.19;;;18.71;44.78
26657;BME280;14279;50.010;8.260;2023-05-29T02:39:17;100565.06;;;18.76;44.63
26657;BME280;14279;50.010;8.260;2023-05-29T02:41:42;100560.47;;;18.78;44.45
26657;BME280;14279;50.010;8.260;2023-05-29T02:44:07;100564.69;;;18.81;44.58
26657;BME280;14279;50.010;8.260;2023-05-29T02:46:32;100561.91;;;18.83;44.70
26657;BME280;14279;50.010;8.260;2023-05-29T02:48:57;100558.69;;;18.79;45.80
26657;BME280;14279;50.010;8.260;2023-05-29T02:51:22;100563.59;;;18.61;46.50
26657;BME280;14279;50.010;8.260;2023-05-29T02:53:48;100562.72;;;18.49;47.17
26657;BME280;14279;50.010;8.260;2023-05-29T02:56:13;100562.22;;;18.44;47.11
26657;BME280;14279;50.010;8.260;2023-05-29T02:58:40;100561.41;;;18.43;47.56
26657;BME280;14279;50.010;8.260;2023-05-29T03:01:06;100562.22;;;18.44;47.82
26657;BME280;14279;50.010;8.260;2023-05-29T03:03:31;100559.00;;;18.40;47.59
26657;BME280;14279;50.010;8.260;2023-05-29T03:05:56;100554.81;;;18.38;48.25
26657;BME280;14279;50.010;8.260;2023-05-29T03:08:21;100552.06;;;18.39;48.26
26657;BME280;14279;50.010;8.260;2023-05-29T03:10:46;100555.63;;;18.38;48.33
26657;BME280;14279;50.010;8.260;2023-05-29T03:13:13;100556.72;;;18.36;49.10
26657;BME280;14279;50.010;8.260;2023-05-29T03:15:38;100563.53;;;18.27;49.31
26657;BME280;14279;50.010;8.260;2023-05-29T03:18:03;100565.09;;;18.29;48.76
26657;BME280;14279;50.010;8.260;2023-05-29T03:20:28;100570.72;;;18.36;48.27
26657;BME280;14279;50.010;8.260;2023-05-29T03:22:54;100565.22;;;18.39;48.35
26657;BME280;14279;50.010;8.260;2023-05-29T03:25:20;100565.91;;;18.30;49.39
26657;BME280;14279;50.010;8.260;2023-05-29T03:27:45;100567.34;;;18.23;48.99
26657;BME280;14279;50.010;8.260;2023-05-29T03:30:11;100566.41;;;18.24;49.33
26657;BME280;14279;50.010;8.260;2023-05-29T03:32:36;100569.34;;;18.19;49.41
26657;BME280;14279;50.010;8.260;2023-05-29T03:35:02;100566.72;;;18.08;49.61
26657;BME280;14279;50.010;8.260;2023-05-29T03:37:28;100578.78;;;18.10;48.97
26657;BME280;14279;50.010;8.260;2023-05-29T03:39:54;100576.06;;;18.12;49.12
26657;BME280;14279;50.010;8.260;2023-05-29T03:42:20;100585.25;;;18.06;49.43
26657;BME280;14279;50.010;8.260;2023-05-29T03:44:45;100584.28;;;18.07;49.29
26657;BME280;14279;50.010;8.260;2023-05-29T03:47:10;100594.44;;;18.00;49.64
26657;BME280;14279;50.010;8.260;2023-05-29T03:49:35;100591.94;;;17.99;49.85
26657;BME280;14279;50.010;8.260;2023-05-29T03:52:00;100588.00;;;18.05;49.42
26657;BME280;14279;50.010;8.260;2023-05-29T03:54:26;100595.19;;;18.02;49.75
26657;BME280;14279;50.010;8.260;2023-05-29T03:56:51;100606.56;;;18.03;50.60
26657;BME280;14279;50.010;8.260;2023-05-29T03:59:16;100603.41;;;17.98;50.04
26657;BME280;14279;50.010;8.260;2023-05-29T04:01:41;100614.78;;;17.98;50.33
26657;BME280;14279;50.010;8.260;2023-05-29T04:04:07;100613.28;;;17.94;50.95
26657;BME280;14279;50.010;8.260;2023-05-29T04:06:32;100616.91;;;17.93;50.72
26657;BME280;14279;50.010;8.260;2023-05-29T04:08:57;100620.56;;;18.03;50.00
26657;BME280;14279;50.010;8.260;2023-05-29T04:11:22;100628.63;;;17.89;50.35
26657;BME280;14279;50.010;8.260;2023-05-29T04:13:48;100623.81;;;17.94;49.38
26657;BME280;14279;50.010;8.260;2023-05-29T04:16:14;100625.25;;;18.11;49.55
26657;BME280;14279;50.010;8.260;2023-05-29T04:18:39;100626.22;;;18.10;49.25
26657;BME280;14279;50.010;8.260;2023-05-29T04:21:05;100631.31;;;18.00;49.15
26657;BME280;14279;50.010;8.260;2023-05-29T04:23:30;100635.19;;;18.08;48.87
26657;BME280;14279;50.010;8.260;2023-05-29T04:25:55;100646.13;;;18.14;48.79
26657;BME280;14279;50.010;8.260;2023-05-29T04:28:21;100648.53;;;18.17;48.75
26657;BME280;14279;50.010;8.260;2023-05-29T04:30:47;100658.72;;;18.22;49.25
26657;BME280;14279;50.010;8.260;2023-05-29T04:33:12;100661.31;;;18.11;49.66
26657;BME280;14279;50.010;8.260;2023-05-29T04:35:39;100653.84;;;18.05;49.28
26657;BME280;14279;50.010;8.260;2023-05-29T04:38:08;100654.66;;;17.81;49.59
26657;BME280;14279;50.010;8.260;2023-05-29T04:40:33;100658.16;;;17.81;49.73
26657;BME280;14279;50.010;8.260;2023-05-29T04:42:58;100664.06;;;17.72;50.20
26657;BME280;14279;50.010;8.260;2023-05-29T04:45:27;100670.75;;;17.89;49.56
26657;BME280;14279;50.010;8.260;2023-05-29T04:47:52;100678.19;;;17.95;49.60
26657;BME280;14279;50.010;8.260;2023-05-29T04:50:20;100680.31;;;18.03;49.66
26657;BME280;14279;50.010;8.260;2023-05-29T04:52:45;100679.31;;;17.80;50.08
26657;BME280;14279;50.010;8.260;2023-05-29T04:55:11;100679.91;;;17.83;50.11
26657;BME280;14279;50.010;8.260;2023-05-29T04:57:36;100680.94;;;17.94;49.81
26657;BME280;14279;50.010;8.260;2023-05-29T05:00:03;100689.28;;;18.00;50.35
26657;BME280;14279;50.010;8.260;2023-05-29T05:02:32;100700.41;;;18.17;49.61
26657;BME280;14279;50.010;8.260;2023-05-29T05:04:57;100700.31;;;18.06;50.00
26657;BME280;14279;50.010;8.260;2023-05-29T05:07:22;100705.72;;;18.04;50.32
26657;BME280;14279;50.010;8.260;2023-05-29T05:09:48;100705.25;;;18.10;49.91
26657;BME280;14279;50.010;8.260;2023-05-29T05:12:13;100709.28;;;18.27;50.34
26657;BME280;14279;50.010;8.260;2023-05-29T05:14:38;100713.16;;;18.35;50.22
26657;BME280;14279;50.010;8.260;2023-05-29T05:17:03;100709.00;;;18.43;49.80
26657;BME280;14279;50.010;8.260;2023-05-29T05:19:29;100713.25;;;18.33;49.80
26657;BME280;14279;50.010;8.260;2023-05-29T05:21:54;100713.91;;;18.37;49.95
26657;BME280;14279;50.010;8.260;2023-05-29T05:24:19;100712.88;;;18.26;50.08
26657;BME280;14279;50.010;8.260;2023-05-29T05:26:45;100717.47;;;18.11;50.67
26657;BME280;14279;50.010;8.260;2023-05-29T05:29:10;100727.19;;;18.11;50.87
26657;BME280;14279;50.010;8.260;2023-05-29T05:31:35;100720.50;;;18.18;50.84
26657;BME280;14279;50.010;8.260;2023-05-29T05:34:00;100720.22;;;18.10;50.90
26657;BME280;14279;50.010;8.260;2023-05-29T05:36:25;100727.88;;;18.26;51.00
26657;BME280;14279;50.010;8.260;2023-05-29T05:38:51;100730.69;;;18.47;50.63
26657;BME280;14279;50.010;8.260;2023-05-29T05:41:16;100725.03;;;18.40;50.79
26657;BME280;14279;50.010;8.260;2023-05-29T05:43:41;100722.28;;;18.66;50.27
26657;BME280;14279;50.010;8.260;2023-05-29T05:46:06;100730.03;;;18.56;50.65
26657;BME280;14279;50.010;8.260;2023-05-29T05:48:32;100728.16;;;18.70;50.44
26657;BME280;14279;50.010;8.260;2023-05-29T05:50:57;100731.50;;;18.72;50.81
26657;BME280;14279;50.010;8.260;2023-05-29T05:53:22;100732.53;;;18.58;50.96
26657;BME280;14279;50.010;8.260;2023-05-29T05:55:47;100732.75;;;18.55;51.15
26657;BME280;14279;50.010;8.260;2023-05-29T05:58:13;100731.34;;;18.51;51.12
26657;BME280;14279;50.010;8.260;2023-05-29T06:00:39;100731.56;;;18.47;51.13
26657;BME280;14279;50.010;8.260;2023-05-29T06:03:05;100736.81;;;18.23;51.50
26657;BME280;14279;50.010;8.260;2023-05-29T06:05:30;100737.41;;;18.40;51.51
26657;BME280;14279;50.010;8.260;2023-05-29T06:07:55;100735.91;;;18.60;51.27
26657;BME280;14279;50.010;8.260;2023-05-29T06:10:21;100733.75;;;18.54;51.32
26657;BME280;14279;50.010;8.260;2023-05-29T06:12:46;100735.81;;;18.61;51.39
26657;BME280;14279;50.010;8.260;2023-05-29T06:15:11;100733.75;;;18.89;50.89
26657;BME280;14279;50.010;8.260;2023-05-29T06:17:37;100732.50;;;18.82;50.87
26657;BME280;14279;50.010;8.260;2023-05-29T06:20:03;100740.38;;;18.71;51.75
26657;BME280;14279;50.010;8.260;2023-05-29T06:22:30;100747.31;;;18.60;52.12
26657;BME280;14279;50.010;8.260;2023-05-29T06:24:56;100746.81;;;18.91;51.42
26657;BME280;14279;50.010;8.260;2023-05-29T06:27:21;100750.84;;;18.84;51.76
26657;BME280;14279;50.010;8.260;2023-05-29T06:29:50;100754.94;;;18.88;51.71
26657;BME280;14279;50.010;8.260;2023-05-29T06:32:15;100747.97;;;19.22;51.05
26657;BME280;14279;50.010;8.260;2023-05-29T06:34:41;100750.84;;;19.19;51.16
26657;BME280;14279;50.010;8.260;2023-05-29T06:37:06;100750.16;;;19.29;51.04
26657;BME280;14279;50.010;8.260;2023-05-29T06:39:32;100756.97;;;19.20;51.05
26657;BME280;14279;50.010;8.260;2023-05-29T06:41:57;100753.50;;;19.31;50.95
26657;BME280;14279;50.010;8.260;2023-05-29T06:44:22;100751.72;;;19.43;50.76
26657;BME280;14279;50.010;8.260;2023-05-29T06:46:47;100750.03;;;19.53;50.67
26657;BME280;14279;50.010;8.260;2023-05-29T06:49:12;100753.78;;;19.62;50.30
26657;BME280;14279;50.010;8.260;2023-05-29T06:51:38;100753.66;;;19.63;49.58
26657;BME280;14279;50.010;8.260;2023-05-29T06:54:03;100739.59;;;19.86;48.82
26657;BME280;14279;50.010;8.260;2023-05-29T06:56:28;100738.25;;;20.03;48.15
26657;BME280;14279;50.010;8.260;2023-05-29T06:58:55;100731.81;;;19.95;47.31
26657;BME280;14279;50.010;8.260;2023-05-29T07:01:20;100741.72;;;20.15;46.13
26657;BME280;14279;50.010;8.260;2023-05-29T07:03:46;100733.47;;;19.85;45.12
26657;BME280;14279;50.010;8.260;2023-05-29T07:06:12;100734.31;;;20.08;45.28
26657;BME280;14279;50.010;8.260;2023-05-29T07:08:37;100734.06;;;20.44;44.42
26657;BME280;14279;50.010;8.260;2023-05-29T07:11:02;100745.69;;;20.53;44.39
26657;BME280;14279;50.010;8.260;2023-05-29T07:13:27;100750.16;;;20.73;44.01
26657;BME280;14279;50.010;8.260;2023-05-29T07:15:52;100748.53;;;20.61;44.47
26657;BME280;14279;50.010;8.260;2023-05-29T07:18:18;100749.41;;;20.50;44.76
26657;BME280;14279;50.010;8.260;2023-05-29T07:20:43;100751.63;;;20.34;44.07
26657;BME280;14279;50.010;8.260;2023-05-29T07:23:08;100760.38;;;20.46;44.08
26657;BME280;14279;50.010;8.260;2023-05-29T07:25:34;100752.44;;;20.46;43.99
26657;BME280;14279;50.010;8.260;2023-05-29T07:27:59;100755.00;;;20.68;43.26
26657;BME280;14279;50.010;8.260;2023-05-29T07:30:24;100754.41;;;20.65;43.42
26657;BME280;14279;50.010;8.260;2023-05-29T07:32:49;100760.50;;;20.98;42.98
26657;BME280;14279;50.010;8.260;2023-05-29T07:35:15;100756.38;;;20.84;42.81
26657;BME280;14279;50.010;8.260;2023-05-29T07:37:40;100765.03;;;21.07;42.68
26657;BME280;14279;50.010;8.260;2023-05-29T07:40:06;100769.28;;;20.77;42.69
26657;BME280;14279;50.010;8.260;2023-05-29T07:42:32;100772.78;;;20.99;41.96
26657;BME280;14279;50.010;8.260;2023-05-29T07:44:57;100764.50;;;21.35;41.67
26657;BME280;14279;50.010;8.260;2023-05-29T07:47:23;100772.31;;;21.36;41.71
26657;BME280;14279;50.010;8.260;2023-05-29T07:49:48;100773.00;;;21.28;42.10
26657;BME280;14279;50.010;8.260;2023-05-29T07:52:13;100764.75;;;21.31;41.89
26657;BME280;14279;50.010;8.260;2023-05-29T07:54:38;100767.41;;;21.31;42.10
26657;BME280;14279;50.010;8.260;2023-05-29T07:57:04;100774.06;;;21.47;40.65
26657;BME280;14279;50.010;8.260;2023-05-29T07:59:34;100774.81;;;21.38;39.96
26657;BME280;14279;50.010;8.260;2023-05-29T08:02:00;100771.63;;;21.34;40.35
26657;BME280;14279;50.010;8.260;2023-05-29T08:04:27;100777.16;;;21.52;39.37
26657;BME280;14279;50.010;8.260;2023-05-29T08:06:53;100775.72;;;21.48;39.02
26657;BME280;14279;50.010;8.260;2023-05-29T08:09:18;100771.88;;;21.31;39.39
26657;BME280;14279;50.010;8.260;2023-05-29T08:11:43;100768.50;;;21.29;39.03
26657;BME280;14279;50.010;8.260;2023-05-29T08:14:12;100771.88;;;21.31;39.09
26657;BME280;14279;50.010;8.260;2023-05-29T08:16:37;100773.44;;;21.43;38.82
26657;BME280;14279;50.010;8.260;2023-05-29T08:19:02;100765.41;;;21.76;38.35
26657;BME280;14279;50.010;8.260;2023-05-29T08:21:28;100767.44;;;21.62;38.44
26657;BME280;14279;50.010;8.260;2023-05-29T08:23:54;100766.22;;;21.67;38.65
26657;BME280;14279;50.010;8.260;2023-05-29T08:26:19;100763.56;;;21.67;39.30
26657;BME280;14279;50.010;8.260;2023-05-29T08:28:44;100755.16;;;22.02;39.17
26657;BME280;14279;50.010;8.260;2023-05-29T08:31:09;100767.03;;;22.18;39.47
26657;BME280;14279;50.010;8.260;2023-05-29T08:33:35;100768.25;;;21.94;38.58
26657;BME280;14279;50.010;8.260;2023-05-29T08:36:01;100761.88;;;22.16;38.51
26657;BME280;14279;50.010;8.260;2023-05-29T08:38:27;100768.88;;;22.37;38.94
26657;BME280;14279;50.010;8.260;2023-05-29T08:40:52;100760.41;;;22.53;38.43
26657;BME280;14279;50.010;8.260;2023-05-29T08:43:22;100769.41;;;22.21;39.29
26657;BME280;14279;50.010;8.260;2023-05-29T08:45:52;100766.88;;;22.00;38.98
26657;BME280;14279;50.010;8.260;2023-05-29T08:48:19;100767.28;;;21.95;38.79
26657;BME280;14279;50.010;8.260;2023-05-29T08:50:47;100776.53;;;22.11;39.61
26657;BME280;14279;50.010;8.260;2023-05-29T08:53:14;100770.13;;;22.13;39.84
26657;BME280;14279;50.010;8.260;2023-05-29T08:55:40;100768.88;;;22.37;39.35
26657;BME280;14279;50.010;8.260;2023-05-29T08:58:06;100773.97;;;22.50;39.15
26657;BME280;14279;50.010;8.260;2023-05-29T09:00:32;100759.94;;;22.09;39.57
26657;BME280;14279;50.010;8.260;2023-05-29T09:02:57;100761.34;;;22.13;38.07
26657;BME280;14279;50.010;8.260;2023-05-29T09:05:24;100764.97;;;22.21;38.20
26657;BME280;14279;50.010;8.260;2023-05-29T09:07:56;100769.69;;;22.18;38.51
26657;BME280;14279;50.010;8.260;2023-05-29T09:10:21;100766.50;;;22.34;39.00
26657;BME280;14279;50.010;8.260;2023-05-29T09:12:51;100770.97;;;22.24;38.95
26657;BME280;14279;50.010;8.260;2023-05-29T09:15:22;100759.25;;;22.36;38.52
26657;BME280;14279;50.010;8.260;2023-05-29T09:17:55;100758.88;;;22.70;38.32
26657;BME280;14279;50.010;8.260;2023-05-29T09:20:23;100760.28;;;22.84;38.12
26657;BME280;14279;50.010;8.260;2023-05-29T09:23:00;100763.75;;;22.94;38.28
26657;BME280;14279;50.010;8.260;2023-05-29T09:25:30;100760.78;;;23.07;38.73
26657;BME280;14279;50.010;8.260;2023-05-29T09:28:00;100765.81;;;23.10;37.59
26657;BME280;14279;50.010;8.260;2023-05-29T09:30:46;100761.94;;;22.95;37.63
26657;BME280;14279;50.010;8.260;2023-05-29T09:33:15;100773.94;;;23.09;37.50
26657;BME280;14279;50.010;8.260;2023-05-29T09:35:42;100772.22;;;23.18;37.00
26657;BME280;14279;50.010;8.260;2023-05-29T09:38:08;100768.34;;;23.02;37.32
26657;BME280;14279;50.010;8.260;2023-05-29T09:40:36;100763.25;;;23.38;36.87
26657;BME280;14279;50.010;8.260;2023-05-29T09:43:15;100765.72;;;23.50;37.01
26657;BME280;14279;50.010;8.260;2023-05-29T09:45:48;100758.25;;;23.63;36.17
26657;BME280;14279;50.010;8.260;2023-05-29T09:48:16;100758.78;;;23.29;35.20
26657;BME280;14279;50.010;8.260;2023-05-29T09:50:42;100757.53;;;23.33;35.08
26657;BME280;14279;50.010;8.260;2023-05-29T09:53:23;100763.31;;;23.09;36.40
26657;BME280;14279;50.010;8.260;2023-05-29T09:55:51;100768.72;;;23.17;36.38
26657;BME280;14279;50.010;8.260;2023-05-29T09:58:20;100767.00;;;23.36;36.23
26657;BME280;14279;50.010;8.260;2023-05-29T10:00:46;100766.38;;;23.62;35.37
26657;BME280;14279;50.010;8.260;2023-05-29T10:03:12;100766.06;;;23.65;34.87
26657;BME280;14279;50.010;8.260;2023-05-29T10:05:39;100764.59;;;23.52;33.21
26657;BME280;14279;50.010;8.260;2023-05-29T10:08:05;100760.34;;;23.32;34.32
26657;BME280;14279;50.010;8.260;2023-05-29T10:10:33;100762.69;;;23.45;33.95
26657;BME280;14279;50.010;8.260;2023-05-29T10:12:59;100755.38;;;23.56;33.83
26657;BME280;14279;50.010;8.260;2023-05-29T10:15:28;100753.94;;;23.62;33.74
26657;BME280;14279;50.010;8.260;2023-05-29T10:18:03;100762.72;;;23.63;34.12
26657;BME280;14279;50.010;8.260;2023-05-29T10:20:35;100758.19;;;23.45;32.93
26657;BME280;14279;50.010;8.260;2023-05-29T10:23:01;100753.25;;;23.60;33.03
26657;BME280;14279;50.010;8.260;2023-05-29T10:25:29;100754.56;;;23.74;34.14
26657;BME280;14279;50.010;8.260;2023-05-29T10:27:56;100745.63;;;24.03;33.22
26657;BME280;14279;50.010;8.260;2023-05-29T10:33:13;100758.78;;;23.67;32.87
26657;BME280;14279;50.010;8.260;2023-05-29T10:36:04;100752.38;;;23.97;32.44
26657;BME280;14279;50.010;8.260;2023-05-29T10:38:35;100758.16;;;23.55;32.91
26657;BME280;14279;50.010;8.260;2023-05-29T10:43:54;100754.22;;;23.59;32.70
26657;BME280;14279;50.010;8.260;2023-05-29T10:46:20;100760.34;;;23.97;31.99
26657;BME280;14279;50.010;8.260;2023-05-29T10:48:49;100762.97;;;24.43;31.38
26657;BME280;14279;50.010;8.260;2023-05-29T10:51:25;100754.22;;;24.69;30.75
26657;BME280;14279;50.010;8.260;2023-05-29T10:53:50;100753.41;;;24.51;29.70
26657;BME280;14279;50.010;8.260;2023-05-29T10:56:21;100752.56;;;24.14;30.57
26657;BME280;14279;50.010;8.260;2023-05-29T10:58:52;100749.88;;;24.32;29.77
26657;BME280;14279;50.010;8.260;2023-05-29T11:01:21;100733.84;;;24.60;29.36
26657;BME280;14279;50.010;8.260;2023-05-29T11:03:47;100740.56;;;24.28;28.47
26657;BME280;14279;50.010;8.260;2023-05-29T11:06:20;100742.38;;;24.27;28.00
26657;BME280;14279;50.010;8.260;2023-05-29T11:08:56;100747.94;;;24.16;28.65
26657;BME280;14279;50.010;8.260;2023-05-29T11:13:54;100752.00;;;24.10;28.53
26657;BME280;14279;50.010;8.260;2023-05-29T11:16:37;100757.19;;;24.12;28.41
26657;BME280;14279;50.010;8.260;2023-05-29T11:19:07;100743.81;;;24.22;28.82
26657;BME280;14279;50.010;8.260;2023-05-29T11:24:26;100745.25;;;24.52;29.43
26657;BME280;14279;50.010;8.260;2023-05-29T11:26:53;100736.91;;;24.83;29.29
26657;BME280;14279;50.010;8.260;2023-05-29T11:29:24;100746.97;;;24.98;29.59
26657;BME280;14279;50.010;8.260;2023-05-29T11:31:55;100735.59;;;25.14;29.44
26657;BME280;14279;50.010;8.260;2023-05-29T11:34:23;100727.59;;;24.69;29.35
26657;BME280;14279;50.010;8.260;2023-05-29T11:36:48;100736.25;;;25.16;29.25
26657;BME280;14279;50.010;8.260;2023-05-29T11:39:14;100726.13;;;25.46;28.79
26657;BME280;14279;50.010;8.260;2023-05-29T11:41:40;100731.19;;;25.31;28.96
26657;BME280;14279;50.010;8.260;2023-05-29T11:44:05;100734.09;;;25.11;29.50
26657;BME280;14279;50.010;8.260;2023-05-29T11:46:31;100738.59;;;24.92;30.23
26657;BME280;14279;50.010;8.260;2023-05-29T11:48:58;100734.38;;;24.64;30.80
26657;BME280;14279;50.010;8.260;2023-05-29T11:51:24;100738.97;;;24.98;30.37
26657;BME280;14279;50.010;8.260;2023-05-29T11:53:50;100731.28;;;24.95;30.03
26657;BME280;14279;50.010;8.260;2023-05-29T11:56:18;100711.03;;;24.57;31.77
26657;BME280;14279;50.010;8.260;2023-05-29T11:58:44;100728.53;;;24.78;31.81
26657;BME280;14279;50.010;8.260;2023-05-29T12:01:09;100724.03;;;24.60;31.73
26657;BME280;14279;50.010;8.260;2023-05-29T12:03:42;100733.25;;;24.84;31.09
26657;BME280;14279;50.010;8.260;2023-05-29T12:06:10;100721.22;;;25.06;31.95
26657;BME280;14279;50.010;8.260;2023-05-29T12:08:36;100722.00;;;24.99;32.02
26657;BME280;14279;50.010;8.260;2023-05-29T12:11:02;100722.84;;;24.99;32.13
26657;BME280;14279;50.010;8.260;2023-05-29T12:13:27;100723.47;;;25.54;31.69
26657;BME280;14279;50.010;8.260;2023-05-29T12:15:57;100715.72;;;25.69;31.47
26657;BME280;14279;50.010;8.260;2023-05-29T12:18:25;100719.13;;;25.18;32.16
26657;BME280;14279;50.010;8.260;2023-05-29T12:20:51;100714.22;;;25.40;31.41
26657;BME280;14279;50.010;8.260;2023-05-29T12:23:21;100699.94;;;25.92;31.29
26657;BME280;14279;50.010;8.260;2023-05-29T12:25:47;100708.28;;;25.46;31.45
26657;BME280;14279;50.010;8.260;2023-05-29T12:28:16;100711.50;;;25.24;32.03
26657;BME280;14279;50.010;8.260;2023-05-29T12:30:45;100709.53;;;25.60;31.48
26657;BME280;14279;50.010;8.260;2023-05-29T12:33:33;100708.63;;;25.17;31.77
26657;BME280;14279;50.010;8.260;2023-05-29T12:36:06;100706.66;;;25.54;31.16
26657;BME280;14279;50.010;8.260;2023-05-29T12:38:32;100708.41;;;25.36;31.55
26657;BME280;14279;50.010;8.260;2023-05-29T12:40:58;100704.19;;;25.60;31.43
26657;BME280;14279;50.010;8.260;2023-05-29T12:43:23;100697.31;;;26.09;31.93
26657;BME280;14279;50.010;8.260;2023-05-29T12:45:55;100700.69;;;25.60;32.03
26657;BME280;14279;50.010;8.260;2023-05-29T12:48:26;100701.53;;;26.28;31.10
26657;BME280;14279;50.010;8.260;2023-05-29T12:50:51;100698.34;;;26.24;30.89
26657;BME280;14279;50.010;8.260;2023-05-29T12:53:17;100700.78;;;25.93;30.87
26657;BME280;14279;50.010;8.260;2023-05-29T12:55:43;100702.38;;;25.34;31.84
26657;BME280;14279;50.010;8.260;2023-05-29T12:58:11;100703.50;;;26.18;31.09
26657;BME280;14279;50.010;8.260;2023-05-29T13:00:42;100696.03;;;26.38;30.49
26657;BME280;14279;50.010;8.260;2023-05-29T13:03:08;100693.00;;;26.58;30.87
26657;BME280;14279;50.010;8.260;2023-05-29T13:05:34;100699.03;;;26.18;30.96
26657;BME280;14279;50.010;8.260;2023-05-29T13:08:00;100700.63;;;26.03;31.14
26657;BME280;14279;50.010;8.260;2023-05-29T13:10:26;100693.69;;;26.18;30.96